Detalii statie Girov TCE 3 BRAZI [000011A2]

Toti senzorii

Date Temperatura solului [C]Precipitatii [mm]Voltaj baterie [mV]Leaf Wetness [Min]HC Air temperature [C]HC Relative humidity [%]Punctul de roua [C]
medieminmaxsumaultimatimpmedieminmaxmediemediemin
2019-10-19 22:00:00 0 6572 0 7.59 7.58 7.6 0 0
2019-10-19 22:15:00 0 6552 0 7.48 7.4 7.61 0 0
2019-10-19 22:30:00 0 6552 0 7.32 7.27 7.37 33.33 2.4 0
2019-10-19 22:45:00 0 6552 0 7.13 6.97 7.31 0 0
2019-10-19 23:00:00 0 6562 0 6.88 6.83 6.93 0 0
2019-10-19 23:15:00 0 6542 0 6.72 6.69 6.78 0 0
2019-10-19 23:30:00 0 6552 0 6.58 6.48 6.64 0 0
2019-10-19 23:45:00 0 6562 0 6.22 6.17 6.27 0 0
2019-10-20 00:00:00 0 6552 0 6.06 6.04 6.08 0 0
2019-10-20 00:15:00 0 6532 0 5.89 5.87 5.94 0 0
2019-10-20 00:30:00 0 6542 0 5.94 5.75 6.09 0 0
2019-10-20 00:45:00 0 6562 0 5.54 5.39 5.63 0 0
2019-10-20 01:00:00 0 6552 0 5.18 5.06 5.28 0 0
2019-10-20 01:15:00 0 6542 0 5.31 5.29 5.35 0 0
2019-10-20 01:30:00 0 6542 0 5.61 5.47 5.74 0 0
2019-10-20 01:45:00 0 6562 0 5.76 5.67 5.91 0 0
2019-10-20 02:00:00 0 6552 0 6.35 6.15 6.51 0 0
2019-10-20 02:15:00 0 6542 0 6.79 6.59 7.02 0 0
2019-10-20 02:30:00 0 6542 0 7.18 7.11 7.25 0 0
2019-10-20 02:45:00 0 6552 0 7.17 7.11 7.24 0 0
2019-10-20 03:00:00 0 6552 0 6.96 6.78 7.07 0 0
2019-10-20 03:15:00 0 6542 0 6.47 6.33 6.6 0 0
2019-10-20 03:30:00 0 6542 0 6.03 5.94 6.1 0 0
2019-10-20 03:45:00 0 6552 0 5.52 5.34 5.71 0 0
2019-10-20 04:00:00 0 6552 0 5.39 5.31 5.46 0 0
2019-10-20 04:15:00 0 6532 0 5.06 4.98 5.18 0 0
2019-10-20 04:30:00 0 6532 0 4.85 4.82 4.91 0 0
2019-10-20 04:45:00 0 6542 0 4.92 4.78 4.99 0 0
2019-10-20 05:00:00 0 6532 0 4.67 4.46 4.88 0 0
2019-10-20 05:15:00 0 6522 0 4.61 4.51 4.72 0 0
2019-10-20 05:30:00 0 6522 0 4.55 4.51 4.64 0 0
2019-10-20 05:45:00 0 6532 0 4.35 4.3 4.45 0 0
2019-10-20 06:00:00 0 6522 0 4.23 4.19 4.3 0 0
2019-10-20 06:15:00 0 6512 0 4.07 4.02 4.14 0 0
2019-10-20 06:30:00 0 6512 0 4.06 4 4.12 0 0
2019-10-20 06:45:00 0 6522 0 4.28 4.09 4.39 0 0
2019-10-20 07:00:00 0 6512 0 4.15 4.07 4.28 0 0
2019-10-20 07:15:00 0 6494 0 3.98 3.93 4.07 0 0
2019-10-20 07:30:00 0 6512 0 3.84 3.78 3.92 0 0
2019-10-20 07:45:00 0.2 6512 0 3.92 3.86 4.01 0 0
2019-10-20 08:00:00 0 6512 0 3.96 3.93 4 0 0
2019-10-20 08:15:00 0 6512 0 4.3 4.24 4.38 0 0
2019-10-20 08:30:00 0 6542 0 5.03 4.74 5.23 0 0
2019-10-20 08:45:00 0 6600 0 5.7 5.45 6.09 0 0
2019-10-20 09:00:00 0 6650 0 6.73 6.52 6.94 0 0
2019-10-20 09:15:00 0 6668 0 7.39 7.16 7.59 0 0
2019-10-20 09:30:00 0 6796 0 8.14 7.8 8.52 0 0
2019-10-20 09:45:00 0 6992 0 10.01 9.47 10.44 0 0